sensor_id;sensor_type;location;lat;lon;timestamp;P1;durP1;ratioP1;P2;durP2;ratioP2
59314;SDS011;46521;50.160;20.802;2023-10-08T00:09:24;3.33;;;1.10;;
59314;SDS011;46521;50.160;20.802;2023-10-08T00:19:26;2.38;;;0.80;;
59314;SDS011;46521;50.160;20.802;2023-10-08T00:29:34;3.90;;;1.50;;
59314;SDS011;46521;50.160;20.802;2023-10-08T00:39:41;3.70;;;1.37;;
59314;SDS011;46521;50.160;20.802;2023-10-08T00:49:43;4.65;;;1.58;;
59314;SDS011;46521;50.160;20.802;2023-10-08T00:59:49;5.30;;;1.77;;
59314;SDS011;46521;50.160;20.802;2023-10-08T01:09:54;5.00;;;1.88;;
59314;SDS011;46521;50.160;20.802;2023-10-08T01:20:00;4.75;;;1.43;;
59314;SDS011;46521;50.160;20.802;2023-10-08T01:30:20;3.08;;;1.50;;
59314;SDS011;46521;50.160;20.802;2023-10-08T01:40:22;3.15;;;1.40;;
59314;SDS011;46521;50.160;20.802;2023-10-08T01:50:24;4.00;;;1.63;;
59314;SDS011;46521;50.160;20.802;2023-10-08T02:00:25;2.73;;;1.00;;
59314;SDS011;46521;50.160;20.802;2023-10-08T02:10:27;4.13;;;1.50;;
59314;SDS011;46521;50.160;20.802;2023-10-08T02:20:30;2.78;;;1.28;;
59314;SDS011;46521;50.160;20.802;2023-10-08T02:30:31;4.40;;;1.60;;
59314;SDS011;46521;50.160;20.802;2023-10-08T02:40:33;4.55;;;1.48;;
59314;SDS011;46521;50.160;20.802;2023-10-08T02:50:40;5.13;;;1.78;;
59314;SDS011;46521;50.160;20.802;2023-10-08T03:00:42;4.20;;;1.63;;
59314;SDS011;46521;50.160;20.802;2023-10-08T03:10:45;3.70;;;1.10;;
59314;SDS011;46521;50.160;20.802;2023-10-08T03:20:49;4.38;;;1.70;;
59314;SDS011;46521;50.160;20.802;2023-10-08T03:30:51;2.95;;;0.90;;
59314;SDS011;46521;50.160;20.802;2023-10-08T03:40:57;3.28;;;0.90;;
59314;SDS011;46521;50.160;20.802;2023-10-08T03:51:04;2.85;;;0.80;;
59314;SDS011;46521;50.160;20.802;2023-10-08T04:01:12;3.58;;;0.80;;
59314;SDS011;46521;50.160;20.802;2023-10-08T04:11:19;4.03;;;1.00;;
59314;SDS011;46521;50.160;20.802;2023-10-08T04:21:31;2.38;;;0.83;;
59314;SDS011;46521;50.160;20.802;2023-10-08T04:31:34;3.35;;;0.90;;
59314;SDS011;46521;50.160;20.802;2023-10-08T04:41:47;2.98;;;0.90;;
59314;SDS011;46521;50.160;20.802;2023-10-08T04:52:00;3.40;;;0.90;;
59314;SDS011;46521;50.160;20.802;2023-10-08T05:02:10;6.20;;;1.07;;
59314;SDS011;46521;50.160;20.802;2023-10-08T05:12:21;4.07;;;1.10;;
59314;SDS011;46521;50.160;20.802;2023-10-08T05:22:38;6.43;;;1.15;;
59314;SDS011;46521;50.160;20.802;2023-10-08T05:32:39;4.05;;;1.10;;
59314;SDS011;46521;50.160;20.802;2023-10-08T05:43:16;4.23;;;1.40;;
59314;SDS011;46521;50.160;20.802;2023-10-08T05:53:38;6.50;;;1.70;;
59314;SDS011;46521;50.160;20.802;2023-10-08T06:03:45;6.77;;;1.50;;
59314;SDS011;46521;50.160;20.802;2023-10-08T06:14:01;7.65;;;1.30;;
59314;SDS011;46521;50.160;20.802;2023-10-08T06:24:04;5.65;;;1.40;;
59314;SDS011;46521;50.160;20.802;2023-10-08T06:44:13;5.30;;;1.55;;
59314;SDS011;46521;50.160;20.802;2023-10-08T06:54:17;5.83;;;1.73;;
59314;SDS011;46521;50.160;20.802;2023-10-08T07:04:19;6.40;;;1.83;;
59314;SDS011;46521;50.160;20.802;2023-10-08T07:14:22;5.50;;;1.88;;
59314;SDS011;46521;50.160;20.802;2023-10-08T07:24:28;4.60;;;1.63;;
59314;SDS011;46521;50.160;20.802;2023-10-08T07:34:31;6.77;;;2.10;;
59314;SDS011;46521;50.160;20.802;2023-10-08T07:44:34;5.85;;;1.80;;
59314;SDS011;46521;50.160;20.802;2023-10-08T07:54:39;4.25;;;1.18;;
59314;SDS011;46521;50.160;20.802;2023-10-08T08:04:41;4.13;;;1.35;;
59314;SDS011;46521;50.160;20.802;2023-10-08T08:14:51;5.25;;;1.30;;
59314;SDS011;46521;50.160;20.802;2023-10-08T08:24:54;4.80;;;1.50;;
59314;SDS011;46521;50.160;20.802;2023-10-08T08:34:56;6.10;;;2.05;;
59314;SDS011;46521;50.160;20.802;2023-10-08T08:44:59;4.45;;;1.30;;
59314;SDS011;46521;50.160;20.802;2023-10-08T08:55:04;5.87;;;1.70;;
59314;SDS011;46521;50.160;20.802;2023-10-08T09:05:14;6.15;;;1.88;;
59314;SDS011;46521;50.160;20.802;2023-10-08T09:15:25;10.33;;;3.60;;
59314;SDS011;46521;50.160;20.802;2023-10-08T09:25:27;6.03;;;2.20;;
59314;SDS011;46521;50.160;20.802;2023-10-08T09:35:33;4.63;;;1.70;;
59314;SDS011;46521;50.160;20.802;2023-10-08T09:45:36;4.23;;;1.50;;
59314;SDS011;46521;50.160;20.802;2023-10-08T09:55:40;11.67;;;4.33;;
59314;SDS011;46521;50.160;20.802;2023-10-08T10:06:11;4.78;;;1.78;;
59314;SDS011;46521;50.160;20.802;2023-10-08T10:16:17;3.58;;;1.30;;
59314;SDS011;46521;50.160;20.802;2023-10-08T10:26:33;3.20;;;1.10;;
59314;SDS011;46521;50.160;20.802;2023-10-08T10:36:36;2.15;;;0.98;;
59314;SDS011;46521;50.160;20.802;2023-10-08T10:46:41;5.05;;;1.30;;
59314;SDS011;46521;50.160;20.802;2023-10-08T10:56:43;5.73;;;1.83;;
59314;SDS011;46521;50.160;20.802;2023-10-08T11:06:46;2.60;;;1.28;;
59314;SDS011;46521;50.160;20.802;2023-10-08T11:16:51;3.55;;;1.03;;
59314;SDS011;46521;50.160;20.802;2023-10-08T11:26:53;3.03;;;0.93;;
59314;SDS011;46521;50.160;20.802;2023-10-08T11:37:07;3.20;;;0.90;;
59314;SDS011;46521;50.160;20.802;2023-10-08T11:47:37;3.35;;;1.10;;
59314;SDS011;46521;50.160;20.802;2023-10-08T11:57:41;2.90;;;1.00;;
59314;SDS011;46521;50.160;20.802;2023-10-08T12:07:46;2.80;;;1.03;;
59314;SDS011;46521;50.160;20.802;2023-10-08T12:17:49;4.73;;;1.00;;
59314;SDS011;46521;50.160;20.802;2023-10-08T12:28:09;5.97;;;1.70;;
59314;SDS011;46521;50.160;20.802;2023-10-08T12:38:13;3.50;;;1.23;;
59314;SDS011;46521;50.160;20.802;2023-10-08T12:48:15;2.65;;;0.90;;
59314;SDS011;46521;50.160;20.802;2023-10-08T12:58:16;2.78;;;0.93;;
59314;SDS011;46521;50.160;20.802;2023-10-08T13:08:18;5.70;;;1.20;;
59314;SDS011;46521;50.160;20.802;2023-10-08T13:18:21;4.88;;;1.00;;
59314;SDS011;46521;50.160;20.802;2023-10-08T13:28:23;4.65;;;1.23;;
59314;SDS011;46521;50.160;20.802;2023-10-08T13:38:27;3.18;;;1.10;;
59314;SDS011;46521;50.160;20.802;2023-10-08T13:48:29;4.70;;;1.27;;
59314;SDS011;46521;50.160;20.802;2023-10-08T13:58:33;1.97;;;0.83;;
59314;SDS011;46521;50.160;20.802;2023-10-08T14:08:37;3.18;;;1.13;;
59314;SDS011;46521;50.160;20.802;2023-10-08T14:18:39;5.78;;;1.10;;
59314;SDS011;46521;50.160;20.802;2023-10-08T14:28:41;3.37;;;1.20;;
59314;SDS011;46521;50.160;20.802;2023-10-08T14:38:52;3.23;;;1.00;;
59314;SDS011;46521;50.160;20.802;2023-10-08T14:49:12;3.53;;;1.33;;
59314;SDS011;46521;50.160;20.802;2023-10-08T14:59:14;5.08;;;1.25;;
59314;SDS011;46521;50.160;20.802;2023-10-08T15:09:16;2.80;;;0.90;;
59314;SDS011;46521;50.160;20.802;2023-10-08T15:19:23;2.47;;;0.90;;
59314;SDS011;46521;50.160;20.802;2023-10-08T15:29:25;2.98;;;1.13;;
59314;SDS011;46521;50.160;20.802;2023-10-08T15:39:27;4.23;;;1.20;;
59314;SDS011;46521;50.160;20.802;2023-10-08T15:49:29;3.08;;;1.10;;
59314;SDS011;46521;50.160;20.802;2023-10-08T15:59:31;2.00;;;0.90;;
59314;SDS011;46521;50.160;20.802;2023-10-08T16:09:32;12.50;;;4.25;;
59314;SDS011;46521;50.160;20.802;2023-10-08T16:19:34;6.70;;;2.28;;
59314;SDS011;46521;50.160;20.802;2023-10-08T16:29:37;5.68;;;1.65;;
59314;SDS011;46521;50.160;20.802;2023-10-08T16:39:39;5.13;;;1.60;;
59314;SDS011;46521;50.160;20.802;2023-10-08T16:49:40;7.65;;;1.95;;
59314;SDS011;46521;50.160;20.802;2023-10-08T16:59:42;5.70;;;1.90;;
59314;SDS011;46521;50.160;20.802;2023-10-08T17:09:44;5.90;;;2.23;;
59314;SDS011;46521;50.160;20.802;2023-10-08T17:19:45;7.30;;;2.20;;
59314;SDS011;46521;50.160;20.802;2023-10-08T17:29:50;8.07;;;2.40;;
59314;SDS011;46521;50.160;20.802;2023-10-08T17:39:52;7.30;;;1.80;;
59314;SDS011;46521;50.160;20.802;2023-10-08T17:49:53;4.75;;;1.70;;
59314;SDS011;46521;50.160;20.802;2023-10-08T17:59:56;5.05;;;1.80;;
59314;SDS011;46521;50.160;20.802;2023-10-08T18:09:58;4.70;;;1.50;;
59314;SDS011;46521;50.160;20.802;2023-10-08T18:20:00;5.05;;;1.75;;
59314;SDS011;46521;50.160;20.802;2023-10-08T18:30:02;6.73;;;2.03;;
59314;SDS011;46521;50.160;20.802;2023-10-08T18:40:06;6.90;;;2.30;;
59314;SDS011;46521;50.160;20.802;2023-10-08T18:50:13;7.80;;;2.33;;
59314;SDS011;46521;50.160;20.802;2023-10-08T19:00:15;8.65;;;2.60;;
59314;SDS011;46521;50.160;20.802;2023-10-08T19:10:18;9.55;;;3.45;;
59314;SDS011;46521;50.160;20.802;2023-10-08T19:20:21;8.30;;;3.30;;
59314;SDS011;46521;50.160;20.802;2023-10-08T19:30:25;7.88;;;3.55;;
59314;SDS011;46521;50.160;20.802;2023-10-08T19:40:26;8.43;;;3.63;;
59314;SDS011;46521;50.160;20.802;2023-10-08T19:50:31;7.85;;;3.15;;
59314;SDS011;46521;50.160;20.802;2023-10-08T20:00:33;8.35;;;2.88;;
59314;SDS011;46521;50.160;20.802;2023-10-08T20:10:37;8.37;;;3.10;;
59314;SDS011;46521;50.160;20.802;2023-10-08T20:20:40;7.78;;;3.00;;
59314;SDS011;46521;50.160;20.802;2023-10-08T20:30:42;9.05;;;3.05;;
59314;SDS011;46521;50.160;20.802;2023-10-08T20:40:45;9.27;;;3.47;;
59314;SDS011;46521;50.160;20.802;2023-10-08T20:50:46;7.77;;;3.53;;
59314;SDS011;46521;50.160;20.802;2023-10-08T21:00:48;11.18;;;3.20;;
59314;SDS011;46521;50.160;20.802;2023-10-08T21:10:52;7.85;;;3.35;;
59314;SDS011;46521;50.160;20.802;2023-10-08T21:20:54;7.88;;;3.68;;
59314;SDS011;46521;50.160;20.802;2023-10-08T21:31:05;8.38;;;3.55;;
59314;SDS011;46521;50.160;20.802;2023-10-08T21:41:07;9.20;;;3.13;;
59314;SDS011;46521;50.160;20.802;2023-10-08T21:51:12;10.05;;;3.55;;
59314;SDS011;46521;50.160;20.802;2023-10-08T22:01:13;8.70;;;3.25;;
59314;SDS011;46521;50.160;20.802;2023-10-08T22:11:18;9.05;;;4.25;;
59314;SDS011;46521;50.160;20.802;2023-10-08T22:21:20;13.58;;;5.98;;
59314;SDS011;46521;50.160;20.802;2023-10-08T22:31:25;12.20;;;5.50;;
59314;SDS011;46521;50.160;20.802;2023-10-08T22:41:26;9.63;;;4.63;;
59314;SDS011;46521;50.160;20.802;2023-10-08T22:51:37;9.68;;;3.80;;
59314;SDS011;46521;50.160;20.802;2023-10-08T23:01:39;10.43;;;4.07;;
59314;SDS011;46521;50.160;20.802;2023-10-08T23:11:43;11.80;;;4.03;;
59314;SDS011;46521;50.160;20.802;2023-10-08T23:21:48;11.15;;;3.95;;
59314;SDS011;46521;50.160;20.802;2023-10-08T23:31:52;9.70;;;3.78;;
59314;SDS011;46521;50.160;20.802;2023-10-08T23:41:55;9.40;;;3.75;;
59314;SDS011;46521;50.160;20.802;2023-10-08T23:52:04;11.23;;;4.30;;
